sensor_id;sensor_type;location;lat;lon;timestamp;P1;durP1;ratioP1;P2;durP2;ratioP2
79399;SDS011;68856;45.586;10.264;2023-05-02T00:02:16;3.47;;;2.60;;
79399;SDS011;68856;45.586;10.264;2023-05-02T00:04:42;3.55;;;1.85;;
79399;SDS011;68856;45.586;10.264;2023-05-02T00:07:09;1.67;;;1.58;;
79399;SDS011;68856;45.586;10.264;2023-05-02T00:09:36;1.50;;;1.40;;
79399;SDS011;68856;45.586;10.264;2023-05-02T00:12:02;1.30;;;1.20;;
79399;SDS011;68856;45.586;10.264;2023-05-02T00:14:28;1.38;;;1.30;;
79399;SDS011;68856;45.586;10.264;2023-05-02T00:16:55;1.25;;;1.17;;
79399;SDS011;68856;45.586;10.264;2023-05-02T00:19:21;1.30;;;1.20;;
79399;SDS011;68856;45.586;10.264;2023-05-02T00:21:47;1.30;;;1.20;;
79399;SDS011;68856;45.586;10.264;2023-05-02T00:24:14;2.08;;;1.02;;
79399;SDS011;68856;45.586;10.264;2023-05-02T00:26:41;1.83;;;1.13;;
79399;SDS011;68856;45.586;10.264;2023-05-02T00:29:08;2.78;;;1.42;;
79399;SDS011;68856;45.586;10.264;2023-05-02T00:31:34;2.35;;;0.90;;
79399;SDS011;68856;45.586;10.264;2023-05-02T00:34:00;2.00;;;1.23;;
79399;SDS011;68856;45.586;10.264;2023-05-02T00:36:26;2.40;;;2.10;;
79399;SDS011;68856;45.586;10.264;2023-05-02T00:38:53;1.70;;;1.60;;
79399;SDS011;68856;45.586;10.264;2023-05-02T00:41:19;2.22;;;1.45;;
79399;SDS011;68856;45.586;10.264;2023-05-02T00:43:45;2.17;;;1.70;;
79399;SDS011;68856;45.586;10.264;2023-05-02T00:46:12;1.98;;;1.77;;
79399;SDS011;68856;45.586;10.264;2023-05-02T00:48:39;1.45;;;1.35;;
79399;SDS011;68856;45.586;10.264;2023-05-02T00:51:05;1.45;;;1.35;;
79399;SDS011;68856;45.586;10.264;2023-05-02T00:53:33;1.27;;;1.05;;
79399;SDS011;68856;45.586;10.264;2023-05-02T00:56:00;1.13;;;1.02;;
79399;SDS011;68856;45.586;10.264;2023-05-02T00:58:27;0.80;;;0.80;;
79399;SDS011;68856;45.586;10.264;2023-05-02T01:06:52;1.00;;;0.90;;
79399;SDS011;68856;45.586;10.264;2023-05-02T01:08:59;0.93;;;0.93;;
79399;SDS011;68856;45.586;10.264;2023-05-02T01:14:32;1.50;;;0.82;;
79399;SDS011;68856;45.586;10.264;2023-05-02T01:17:05;1.75;;;1.23;;
79399;SDS011;68856;45.586;10.264;2023-05-02T01:19:35;0.80;;;0.80;;
79399;SDS011;68856;45.586;10.264;2023-05-02T01:30:26;0.82;;;0.80;;
79399;SDS011;68856;45.586;10.264;2023-05-02T01:32:56;1.25;;;1.00;;
79399;SDS011;68856;45.586;10.264;2023-05-02T01:35:26;0.60;;;0.60;;
79399;SDS011;68856;45.586;10.264;2023-05-02T01:37:54;0.73;;;0.73;;
79399;SDS011;68856;45.586;10.264;2023-05-02T01:40:24;1.38;;;1.27;;
79399;SDS011;68856;45.586;10.264;2023-05-02T01:42:51;0.85;;;0.85;;
79399;SDS011;68856;45.586;10.264;2023-05-02T01:45:20;4.00;;;1.20;;
79399;SDS011;68856;45.586;10.264;2023-05-02T01:47:48;1.02;;;0.88;;
79399;SDS011;68856;45.586;10.264;2023-05-02T01:50:16;1.00;;;0.98;;
79399;SDS011;68856;45.586;10.264;2023-05-02T01:52:48;0.90;;;0.90;;
79399;SDS011;68856;45.586;10.264;2023-05-02T01:57:45;1.08;;;0.98;;
79399;SDS011;68856;45.586;10.264;2023-05-02T02:00:12;0.85;;;0.85;;
79399;SDS011;68856;45.586;10.264;2023-05-02T02:02:41;0.80;;;0.65;;
79399;SDS011;68856;45.586;10.264;2023-05-02T02:05:09;1.42;;;0.63;;
79399;SDS011;68856;45.586;10.264;2023-05-02T02:07:36;0.80;;;0.80;;
79399;SDS011;68856;45.586;10.264;2023-05-02T02:10:03;0.70;;;0.70;;
79399;SDS011;68856;45.586;10.264;2023-05-02T02:12:31;0.90;;;0.80;;
79399;SDS011;68856;45.586;10.264;2023-05-02T02:15:16;1.65;;;0.90;;
79399;SDS011;68856;45.586;10.264;2023-05-02T02:17:59;0.90;;;0.90;;
79399;SDS011;68856;45.586;10.264;2023-05-02T02:20:29;0.82;;;0.82;;
79399;SDS011;68856;45.586;10.264;2023-05-02T02:22:57;1.40;;;0.80;;
79399;SDS011;68856;45.586;10.264;2023-05-02T02:25:27;1.67;;;0.90;;
79399;SDS011;68856;45.586;10.264;2023-05-02T02:27:53;0.80;;;0.80;;
79399;SDS011;68856;45.586;10.264;2023-05-02T02:30:20;0.80;;;0.80;;
79399;SDS011;68856;45.586;10.264;2023-05-02T02:32:47;0.80;;;0.80;;
79399;SDS011;68856;45.586;10.264;2023-05-02T02:35:13;0.73;;;0.60;;
79399;SDS011;68856;45.586;10.264;2023-05-02T02:37:40;0.85;;;0.85;;
79399;SDS011;68856;45.586;10.264;2023-05-02T02:48:32;0.80;;;0.80;;
79399;SDS011;68856;45.586;10.264;2023-05-02T02:56:14;1.48;;;0.85;;
79399;SDS011;68856;45.586;10.264;2023-05-02T03:01:19;1.38;;;0.90;;
79399;SDS011;68856;45.586;10.264;2023-05-02T03:03:48;1.02;;;0.93;;
79399;SDS011;68856;45.586;10.264;2023-05-02T03:06:17;0.85;;;0.85;;
79399;SDS011;68856;45.586;10.264;2023-05-02T03:08:44;0.90;;;0.90;;
79399;SDS011;68856;45.586;10.264;2023-05-02T03:11:11;1.52;;;0.80;;
79399;SDS011;68856;45.586;10.264;2023-05-02T03:13:37;1.25;;;1.00;;
79399;SDS011;68856;45.586;10.264;2023-05-02T03:18:35;1.17;;;1.08;;
79399;SDS011;68856;45.586;10.264;2023-05-02T03:21:02;0.80;;;0.80;;
79399;SDS011;68856;45.586;10.264;2023-05-02T03:23:28;0.90;;;0.90;;
79399;SDS011;68856;45.586;10.264;2023-05-02T03:25:55;1.17;;;0.80;;
79399;SDS011;68856;45.586;10.264;2023-05-02T03:28:21;2.00;;;1.10;;
79399;SDS011;68856;45.586;10.264;2023-05-02T03:30:48;1.20;;;0.93;;
79399;SDS011;68856;45.586;10.264;2023-05-02T03:33:14;1.30;;;1.17;;
79399;SDS011;68856;45.586;10.264;2023-05-02T03:35:40;4.60;;;0.90;;
79399;SDS011;68856;45.586;10.264;2023-05-02T03:38:07;1.30;;;1.20;;
79399;SDS011;68856;45.586;10.264;2023-05-02T03:40:33;6.18;;;1.02;;
79399;SDS011;68856;45.586;10.264;2023-05-02T03:43:00;0.90;;;0.80;;
79399;SDS011;68856;45.586;10.264;2023-05-02T03:45:26;1.67;;;0.80;;
79399;SDS011;68856;45.586;10.264;2023-05-02T03:47:52;1.27;;;0.82;;
79399;SDS011;68856;45.586;10.264;2023-05-02T03:50:19;1.42;;;0.95;;
79399;SDS011;68856;45.586;10.264;2023-05-02T03:52:45;1.33;;;0.82;;
79399;SDS011;68856;45.586;10.264;2023-05-02T03:55:11;1.35;;;0.98;;
79399;SDS011;68856;45.586;10.264;2023-05-02T03:57:38;0.77;;;0.77;;
79399;SDS011;68856;45.586;10.264;2023-05-02T04:00:04;0.75;;;0.75;;
79399;SDS011;68856;45.586;10.264;2023-05-02T04:02:31;3.60;;;0.85;;
79399;SDS011;68856;45.586;10.264;2023-05-02T04:04:57;1.08;;;0.93;;
79399;SDS011;68856;45.586;10.264;2023-05-02T04:07:24;0.85;;;0.85;;
79399;SDS011;68856;45.586;10.264;2023-05-02T04:09:50;1.05;;;0.95;;
79399;SDS011;68856;45.586;10.264;2023-05-02T04:12:17;1.45;;;1.35;;
79399;SDS011;68856;45.586;10.264;2023-05-02T04:14:43;0.80;;;0.80;;
79399;SDS011;68856;45.586;10.264;2023-05-02T04:17:09;0.57;;;0.57;;
79399;SDS011;68856;45.586;10.264;2023-05-02T04:19:35;0.63;;;0.60;;
79399;SDS011;68856;45.586;10.264;2023-05-02T04:22:02;1.08;;;0.73;;
79399;SDS011;68856;45.586;10.264;2023-05-02T04:24:28;0.68;;;0.68;;
79399;SDS011;68856;45.586;10.264;2023-05-02T04:26:54;0.50;;;0.50;;
79399;SDS011;68856;45.586;10.264;2023-05-02T04:29:20;0.95;;;0.80;;
79399;SDS011;68856;45.586;10.264;2023-05-02T04:31:47;0.77;;;0.77;;
79399;SDS011;68856;45.586;10.264;2023-05-02T04:34:14;1.42;;;0.80;;
79399;SDS011;68856;45.586;10.264;2023-05-02T04:36:41;5.28;;;0.85;;
79399;SDS011;68856;45.586;10.264;2023-05-02T04:39:09;0.90;;;0.77;;
79399;SDS011;68856;45.586;10.264;2023-05-02T04:41:35;1.40;;;0.80;;
79399;SDS011;68856;45.586;10.264;2023-05-02T04:44:01;0.60;;;0.60;;
79399;SDS011;68856;45.586;10.264;2023-05-02T04:46:28;0.70;;;0.70;;
79399;SDS011;68856;45.586;10.264;2023-05-02T04:48:54;0.60;;;0.60;;
79399;SDS011;68856;45.586;10.264;2023-05-02T04:51:20;0.70;;;0.70;;
79399;SDS011;68856;45.586;10.264;2023-05-02T04:53:46;0.52;;;0.52;;
79399;SDS011;68856;45.586;10.264;2023-05-02T04:56:13;0.90;;;0.90;;
79399;SDS011;68856;45.586;10.264;2023-05-02T04:58:39;1.63;;;0.80;;
79399;SDS011;68856;45.586;10.264;2023-05-02T05:01:05;1.55;;;0.85;;
79399;SDS011;68856;45.586;10.264;2023-05-02T05:03:31;0.90;;;0.90;;
79399;SDS011;68856;45.586;10.264;2023-05-02T05:05:58;0.82;;;0.63;;
79399;SDS011;68856;45.586;10.264;2023-05-02T05:08:24;0.60;;;0.60;;
79399;SDS011;68856;45.586;10.264;2023-05-02T05:10:51;0.70;;;0.70;;
79399;SDS011;68856;45.586;10.264;2023-05-02T05:13:17;1.58;;;0.60;;
79399;SDS011;68856;45.586;10.264;2023-05-02T05:15:43;1.02;;;0.90;;
79399;SDS011;68856;45.586;10.264;2023-05-02T05:18:11;0.70;;;0.70;;
79399;SDS011;68856;45.586;10.264;2023-05-02T05:20:37;1.00;;;0.90;;
79399;SDS011;68856;45.586;10.264;2023-05-02T05:23:03;0.43;;;0.43;;
79399;SDS011;68856;45.586;10.264;2023-05-02T05:25:30;0.82;;;0.60;;
79399;SDS011;68856;45.586;10.264;2023-05-02T05:27:58;0.73;;;0.73;;
79399;SDS011;68856;45.586;10.264;2023-05-02T05:30:25;1.75;;;1.30;;
79399;SDS011;68856;45.586;10.264;2023-05-02T05:32:54;1.20;;;0.88;;
79399;SDS011;68856;45.586;10.264;2023-05-02T05:35:23;2.95;;;1.20;;
79399;SDS011;68856;45.586;10.264;2023-05-02T05:37:49;1.83;;;0.95;;
79399;SDS011;68856;45.586;10.264;2023-05-02T05:40:16;1.85;;;0.90;;
79399;SDS011;68856;45.586;10.264;2023-05-02T05:42:42;1.08;;;0.90;;
79399;SDS011;68856;45.586;10.264;2023-05-02T05:45:08;0.80;;;0.73;;
79399;SDS011;68856;45.586;10.264;2023-05-02T05:47:36;0.60;;;0.60;;
79399;SDS011;68856;45.586;10.264;2023-05-02T05:50:02;1.50;;;0.93;;
79399;SDS011;68856;45.586;10.264;2023-05-02T05:52:29;1.83;;;1.02;;
79399;SDS011;68856;45.586;10.264;2023-05-02T05:54:55;1.10;;;1.00;;
79399;SDS011;68856;45.586;10.264;2023-05-02T05:57:21;1.98;;;1.45;;
79399;SDS011;68856;45.586;10.264;2023-05-02T05:59:48;2.15;;;1.70;;
79399;SDS011;68856;45.586;10.264;2023-05-02T06:02:15;1.20;;;1.10;;
79399;SDS011;68856;45.586;10.264;2023-05-02T06:04:41;1.98;;;0.90;;
79399;SDS011;68856;45.586;10.264;2023-05-02T06:07:08;2.70;;;1.13;;
79399;SDS011;68856;45.586;10.264;2023-05-02T06:09:34;0.88;;;0.80;;
79399;SDS011;68856;45.586;10.264;2023-05-02T06:12:00;1.65;;;0.75;;
79399;SDS011;68856;45.586;10.264;2023-05-02T06:14:26;0.85;;;0.85;;
79399;SDS011;68856;45.586;10.264;2023-05-02T06:16:53;2.67;;;1.13;;
79399;SDS011;68856;45.586;10.264;2023-05-02T06:19:19;2.97;;;1.38;;
79399;SDS011;68856;45.586;10.264;2023-05-02T06:21:45;3.10;;;1.23;;
79399;SDS011;68856;45.586;10.264;2023-05-02T06:24:11;1.73;;;1.27;;
79399;SDS011;68856;45.586;10.264;2023-05-02T06:26:38;1.85;;;1.30;;
79399;SDS011;68856;45.586;10.264;2023-05-02T06:29:04;2.22;;;1.65;;
79399;SDS011;68856;45.586;10.264;2023-05-02T06:31:30;2.17;;;1.38;;
79399;SDS011;68856;45.586;10.264;2023-05-02T06:33:57;1.67;;;1.30;;
79399;SDS011;68856;45.586;10.264;2023-05-02T06:36:23;1.83;;;1.33;;
79399;SDS011;68856;45.586;10.264;2023-05-02T06:38:49;2.38;;;1.10;;
79399;SDS011;68856;45.586;10.264;2023-05-02T06:41:16;2.60;;;1.50;;
79399;SDS011;68856;45.586;10.264;2023-05-02T06:43:43;1.98;;;1.77;;
79399;SDS011;68856;45.586;10.264;2023-05-02T06:46:09;2.88;;;1.98;;
79399;SDS011;68856;45.586;10.264;2023-05-02T06:48:35;3.88;;;2.05;;
79399;SDS011;68856;45.586;10.264;2023-05-02T06:51:01;2.22;;;2.03;;
79399;SDS011;68856;45.586;10.264;2023-05-02T06:53:28;2.22;;;1.88;;
79399;SDS011;68856;45.586;10.264;2023-05-02T06:55:55;2.20;;;1.88;;
79399;SDS011;68856;45.586;10.264;2023-05-02T06:58:22;1.60;;;1.50;;
79399;SDS011;68856;45.586;10.264;2023-05-02T07:00:48;2.85;;;1.63;;
79399;SDS011;68856;45.586;10.264;2023-05-02T07:03:15;1.85;;;1.48;;
79399;SDS011;68856;45.586;10.264;2023-05-02T07:05:41;1.83;;;1.40;;
79399;SDS011;68856;45.586;10.264;2023-05-02T07:08:07;2.05;;;1.45;;
79399;SDS011;68856;45.586;10.264;2023-05-02T07:10:34;2.58;;;1.20;;
79399;SDS011;68856;45.586;10.264;2023-05-02T07:13:01;2.92;;;1.52;;
79399;SDS011;68856;45.586;10.264;2023-05-02T07:15:27;3.55;;;1.67;;
79399;SDS011;68856;45.586;10.264;2023-05-02T07:17:54;1.52;;;1.25;;
79399;SDS011;68856;45.586;10.264;2023-05-02T07:20:21;2.25;;;1.30;;
79399;SDS011;68856;45.586;10.264;2023-05-02T07:22:47;1.75;;;1.40;;
79399;SDS011;68856;45.586;10.264;2023-05-02T07:25:14;1.42;;;1.00;;
79399;SDS011;68856;45.586;10.264;2023-05-02T07:27:40;1.10;;;1.00;;
79399;SDS011;68856;45.586;10.264;2023-05-02T07:30:06;1.38;;;1.08;;
79399;SDS011;68856;45.586;10.264;2023-05-02T07:32:33;1.63;;;1.10;;
79399;SDS011;68856;45.586;10.264;2023-05-02T07:34:59;2.63;;;0.98;;
79399;SDS011;68856;45.586;10.264;2023-05-02T07:37:26;1.27;;;1.17;;
79399;SDS011;68856;45.586;10.264;2023-05-02T07:39:56;1.58;;;1.20;;
79399;SDS011;68856;45.586;10.264;2023-05-02T07:42:22;1.27;;;1.17;;
79399;SDS011;68856;45.586;10.264;2023-05-02T07:44:54;0.85;;;0.80;;
79399;SDS011;68856;45.586;10.264;2023-05-02T07:47:20;1.23;;;1.15;;
79399;SDS011;68856;45.586;10.264;2023-05-02T07:49:50;1.40;;;1.17;;
79399;SDS011;68856;45.586;10.264;2023-05-02T07:52:18;1.27;;;1.17;;
79399;SDS011;68856;45.586;10.264;2023-05-02T07:54:44;1.58;;;1.48;;
79399;SDS011;68856;45.586;10.264;2023-05-02T07:57:14;1.60;;;1.50;;
79399;SDS011;68856;45.586;10.264;2023-05-02T07:59:40;3.03;;;1.75;;
79399;SDS011;68856;45.586;10.264;2023-05-02T08:02:07;2.47;;;1.92;;
79399;SDS011;68856;45.586;10.264;2023-05-02T08:04:33;1.85;;;1.50;;
79399;SDS011;68856;45.586;10.264;2023-05-02T08:06:59;1.77;;;1.42;;
79399;SDS011;68856;45.586;10.264;2023-05-02T08:09:26;1.63;;;1.30;;
79399;SDS011;68856;45.586;10.264;2023-05-02T08:11:53;1.92;;;1.42;;
79399;SDS011;68856;45.586;10.264;2023-05-02T08:14:19;2.13;;;1.50;;
79399;SDS011;68856;45.586;10.264;2023-05-02T08:16:46;1.83;;;1.50;;
79399;SDS011;68856;45.586;10.264;2023-05-02T08:19:12;1.83;;;1.67;;
79399;SDS011;68856;45.586;10.264;2023-05-02T08:21:39;4.88;;;1.88;;
79399;SDS011;68856;45.586;10.264;2023-05-02T08:24:06;1.60;;;1.50;;
79399;SDS011;68856;45.586;10.264;2023-05-02T08:26:32;1.52;;;1.30;;
79399;SDS011;68856;45.586;10.264;2023-05-02T08:28:58;2.35;;;1.27;;
79399;SDS011;68856;45.586;10.264;2023-05-02T08:31:25;3.78;;;1.45;;
79399;SDS011;68856;45.586;10.264;2023-05-02T08:33:51;1.52;;;1.42;;
79399;SDS011;68856;45.586;10.264;2023-05-02T08:36:17;1.48;;;1.20;;
79399;SDS011;68856;45.586;10.264;2023-05-02T08:38:44;1.42;;;1.33;;
79399;SDS011;68856;45.586;10.264;2023-05-02T08:41:14;3.13;;;1.58;;
79399;SDS011;68856;45.586;10.264;2023-05-02T08:43:43;1.48;;;1.35;;
79399;SDS011;68856;45.586;10.264;2023-05-02T08:46:14;2.45;;;1.35;;
79399;SDS011;68856;45.586;10.264;2023-05-02T08:48:42;2.22;;;1.65;;
79399;SDS011;68856;45.586;10.264;2023-05-02T08:51:10;1.92;;;1.83;;
79399;SDS011;68856;45.586;10.264;2023-05-02T08:53:38;3.28;;;1.52;;
79399;SDS011;68856;45.586;10.264;2023-05-02T08:56:06;1.77;;;1.30;;
79399;SDS011;68856;45.586;10.264;2023-05-02T08:58:36;1.23;;;1.13;;
79399;SDS011;68856;45.586;10.264;2023-05-02T09:01:12;3.30;;;1.10;;
79399;SDS011;68856;45.586;10.264;2023-05-02T09:03:43;2.25;;;0.90;;
79399;SDS011;68856;45.586;10.264;2023-05-02T09:06:12;1.10;;;1.00;;
79399;SDS011;68856;45.586;10.264;2023-05-02T09:08:45;1.33;;;1.20;;
79399;SDS011;68856;45.586;10.264;2023-05-02T09:11:14;1.20;;;1.02;;
79399;SDS011;68856;45.586;10.264;2023-05-02T09:13:42;3.08;;;1.65;;
79399;SDS011;68856;45.586;10.264;2023-05-02T09:21:09;1.00;;;0.90;;
79399;SDS011;68856;45.586;10.264;2023-05-02T09:23:38;0.90;;;0.68;;
79399;SDS011;68856;45.586;10.264;2023-05-02T09:26:12;0.60;;;0.60;;
79399;SDS011;68856;45.586;10.264;2023-05-02T09:28:44;1.95;;;0.60;;
79399;SDS011;68856;45.586;10.264;2023-05-02T09:31:12;1.08;;;0.73;;
79399;SDS011;68856;45.586;10.264;2023-05-02T09:33:40;1.20;;;1.00;;
79399;SDS011;68856;45.586;10.264;2023-05-02T09:36:09;2.05;;;0.70;;
79399;SDS011;68856;45.586;10.264;2023-05-02T09:38:38;0.95;;;0.73;;
79399;SDS011;68856;45.586;10.264;2023-05-02T09:41:09;0.82;;;0.80;;
79399;SDS011;68856;45.586;10.264;2023-05-02T09:43:35;2.15;;;0.80;;
79399;SDS011;68856;45.586;10.264;2023-05-02T09:46:09;1.23;;;0.88;;
79399;SDS011;68856;45.586;10.264;2023-05-02T09:48:50;1.10;;;0.90;;
79399;SDS011;68856;45.586;10.264;2023-05-02T09:51:17;1.35;;;1.23;;
79399;SDS011;68856;45.586;10.264;2023-05-02T09:53:44;0.60;;;0.40;;
79399;SDS011;68856;45.586;10.264;2023-05-02T09:56:11;1.90;;;1.30;;
79399;SDS011;68856;45.586;10.264;2023-05-02T09:58:37;2.25;;;1.00;;
79399;SDS011;68856;45.586;10.264;2023-05-02T10:01:04;1.65;;;1.20;;
79399;SDS011;68856;45.586;10.264;2023-05-02T10:03:30;1.35;;;1.23;;
79399;SDS011;68856;45.586;10.264;2023-05-02T10:06:00;2.13;;;1.10;;
79399;SDS011;68856;45.586;10.264;2023-05-02T10:08:29;2.80;;;1.20;;
79399;SDS011;68856;45.586;10.264;2023-05-02T10:10:58;2.22;;;1.20;;
79399;SDS011;68856;45.586;10.264;2023-05-02T10:13:26;5.43;;;1.20;;
79399;SDS011;68856;45.586;10.264;2023-05-02T10:15:57;1.55;;;1.10;;
79399;SDS011;68856;45.586;10.264;2023-05-02T10:19:09;1.08;;;0.80;;
79399;SDS011;68856;45.586;10.264;2023-05-02T10:21:25;1.33;;;1.10;;
79399;SDS011;68856;45.586;10.264;2023-05-02T10:23:51;1.15;;;1.05;;
79399;SDS011;68856;45.586;10.264;2023-05-02T10:26:18;1.23;;;1.10;;
79399;SDS011;68856;45.586;10.264;2023-05-02T10:28:47;1.00;;;0.95;;
79399;SDS011;68856;45.586;10.264;2023-05-02T10:31:14;3.33;;;1.27;;
79399;SDS011;68856;45.586;10.264;2023-05-02T10:33:41;1.33;;;1.13;;
79399;SDS011;68856;45.586;10.264;2023-05-02T10:36:09;1.02;;;0.88;;
79399;SDS011;68856;45.586;10.264;2023-05-02T10:38:39;1.00;;;0.88;;
79399;SDS011;68856;45.586;10.264;2023-05-02T10:41:09;1.88;;;0.90;;
79399;SDS011;68856;45.586;10.264;2023-05-02T10:43:40;2.22;;;1.30;;
79399;SDS011;68856;45.586;10.264;2023-05-02T10:51:40;1.25;;;1.00;;
79399;SDS011;68856;45.586;10.264;2023-05-02T10:59:36;1.17;;;1.02;;
79399;SDS011;68856;45.586;10.264;2023-05-02T11:02:47;2.42;;;1.60;;
79399;SDS011;68856;45.586;10.264;2023-05-02T11:07:48;2.83;;;1.75;;
79399;SDS011;68856;45.586;10.264;2023-05-02T11:10:34;2.72;;;1.75;;
79399;SDS011;68856;45.586;10.264;2023-05-02T11:13:01;1.75;;;1.65;;
79399;SDS011;68856;45.586;10.264;2023-05-02T11:20:27;3.20;;;1.63;;
79399;SDS011;68856;45.586;10.264;2023-05-02T11:22:56;1.30;;;1.20;;
79399;SDS011;68856;45.586;10.264;2023-05-02T11:25:30;2.28;;;1.75;;
79399;SDS011;68856;45.586;10.264;2023-05-02T11:27:59;2.63;;;1.58;;
79399;SDS011;68856;45.586;10.264;2023-05-02T11:30:38;1.50;;;1.40;;
79399;SDS011;68856;45.586;10.264;2023-05-02T11:35:33;1.73;;;1.60;;
79399;SDS011;68856;45.586;10.264;2023-05-02T11:38:01;2.83;;;1.77;;
79399;SDS011;68856;45.586;10.264;2023-05-02T11:40:28;1.52;;;1.42;;
79399;SDS011;68856;45.586;10.264;2023-05-02T11:42:56;1.83;;;1.35;;
79399;SDS011;68856;45.586;10.264;2023-05-02T11:45:33;1.67;;;1.48;;
79399;SDS011;68856;45.586;10.264;2023-05-02T11:48:01;7.00;;;5.95;;
79399;SDS011;68856;45.586;10.264;2023-05-02T11:52:58;4.35;;;2.08;;
79399;SDS011;68856;45.586;10.264;2023-05-02T11:55:24;2.20;;;2.00;;
79399;SDS011;68856;45.586;10.264;2023-05-02T11:57:51;2.58;;;2.03;;
79399;SDS011;68856;45.586;10.264;2023-05-02T12:00:17;1.52;;;1.38;;
79399;SDS011;68856;45.586;10.264;2023-05-02T12:02:50;2.53;;;1.70;;
79399;SDS011;68856;45.586;10.264;2023-05-02T12:05:22;1.90;;;1.45;;
79399;SDS011;68856;45.586;10.264;2023-05-02T12:07:55;2.67;;;1.25;;
79399;SDS011;68856;45.586;10.264;2023-05-02T12:10:21;1.20;;;1.10;;
79399;SDS011;68856;45.586;10.264;2023-05-02T12:13:02;1.52;;;1.30;;
79399;SDS011;68856;45.586;10.264;2023-05-02T12:15:30;2.83;;;1.60;;
79399;SDS011;68856;45.586;10.264;2023-05-02T12:17:57;1.88;;;1.27;;
79399;SDS011;68856;45.586;10.264;2023-05-02T12:20:23;2.38;;;2.00;;
79399;SDS011;68856;45.586;10.264;2023-05-02T12:22:50;2.85;;;1.83;;
79399;SDS011;68856;45.586;10.264;2023-05-02T12:25:17;2.30;;;1.58;;
79399;SDS011;68856;45.586;10.264;2023-05-02T12:27:57;1.52;;;1.42;;
79399;SDS011;68856;45.586;10.264;2023-05-02T12:30:27;2.22;;;1.60;;
79399;SDS011;68856;45.586;10.264;2023-05-02T12:32:55;2.67;;;1.55;;
79399;SDS011;68856;45.586;10.264;2023-05-02T12:35:28;2.97;;;1.80;;
79399;SDS011;68856;45.586;10.264;2023-05-02T12:40:54;2.28;;;1.73;;
79399;SDS011;68856;45.586;10.264;2023-05-02T12:43:21;2.55;;;1.92;;
79399;SDS011;68856;45.586;10.264;2023-05-02T12:45:48;2.25;;;1.90;;
79399;SDS011;68856;45.586;10.264;2023-05-02T12:48:25;3.65;;;2.20;;
79399;SDS011;68856;45.586;10.264;2023-05-02T12:50:52;4.05;;;1.75;;
79399;SDS011;68856;45.586;10.264;2023-05-02T12:56:05;2.97;;;1.80;;
79399;SDS011;68856;45.586;10.264;2023-05-02T13:01:08;6.18;;;4.32;;
79399;SDS011;68856;45.586;10.264;2023-05-02T13:03:35;2.97;;;1.65;;
79399;SDS011;68856;45.586;10.264;2023-05-02T13:06:01;1.98;;;1.48;;
79399;SDS011;68856;45.586;10.264;2023-05-02T13:08:28;2.25;;;1.10;;
79399;SDS011;68856;45.586;10.264;2023-05-02T13:10:54;2.90;;;1.30;;
79399;SDS011;68856;45.586;10.264;2023-05-02T13:13:20;1.98;;;1.50;;
79399;SDS011;68856;45.586;10.264;2023-05-02T13:15:47;1.55;;;1.42;;
79399;SDS011;68856;45.586;10.264;2023-05-02T13:18:13;2.55;;;1.70;;
79399;SDS011;68856;45.586;10.264;2023-05-02T13:20:39;2.20;;;1.83;;
79399;SDS011;68856;45.586;10.264;2023-05-02T13:23:06;3.00;;;1.63;;
79399;SDS011;68856;45.586;10.264;2023-05-02T13:25:32;2.28;;;1.90;;
79399;SDS011;68856;45.586;10.264;2023-05-02T13:27:58;1.77;;;1.63;;
79399;SDS011;68856;45.586;10.264;2023-05-02T13:30:24;1.80;;;1.70;;
79399;SDS011;68856;45.586;10.264;2023-05-02T13:32:51;1.50;;;1.40;;
79399;SDS011;68856;45.586;10.264;2023-05-02T13:35:17;1.77;;;1.60;;
79399;SDS011;68856;45.586;10.264;2023-05-02T13:37:43;2.50;;;1.70;;
79399;SDS011;68856;45.586;10.264;2023-05-02T13:40:10;1.38;;;1.20;;
79399;SDS011;68856;45.586;10.264;2023-05-02T13:42:36;1.95;;;1.48;;
79399;SDS011;68856;45.586;10.264;2023-05-02T13:45:03;1.88;;;1.63;;
79399;SDS011;68856;45.586;10.264;2023-05-02T13:47:30;2.25;;;1.60;;
79399;SDS011;68856;45.586;10.264;2023-05-02T13:49:56;1.42;;;1.17;;
79399;SDS011;68856;45.586;10.264;2023-05-02T13:52:22;1.88;;;1.50;;
79399;SDS011;68856;45.586;10.264;2023-05-02T13:54:49;2.50;;;1.88;;
79399;SDS011;68856;45.586;10.264;2023-05-02T13:57:15;1.92;;;1.65;;
79399;SDS011;68856;45.586;10.264;2023-05-02T13:59:41;1.90;;;1.52;;
79399;SDS011;68856;45.586;10.264;2023-05-02T14:02:08;3.13;;;1.98;;
79399;SDS011;68856;45.586;10.264;2023-05-02T14:04:34;3.03;;;1.73;;
79399;SDS011;68856;45.586;10.264;2023-05-02T14:07:01;2.03;;;1.83;;
79399;SDS011;68856;45.586;10.264;2023-05-02T14:09:27;2.00;;;1.58;;
79399;SDS011;68856;45.586;10.264;2023-05-02T14:11:53;1.50;;;1.40;;
79399;SDS011;68856;45.586;10.264;2023-05-02T14:14:20;1.98;;;1.77;;
79399;SDS011;68856;45.586;10.264;2023-05-02T14:16:46;1.45;;;1.35;;
79399;SDS011;68856;45.586;10.264;2023-05-02T14:19:13;2.75;;;1.40;;
79399;SDS011;68856;45.586;10.264;2023-05-02T14:21:39;1.65;;;1.25;;
79399;SDS011;68856;45.586;10.264;2023-05-02T14:24:05;1.60;;;1.50;;
79399;SDS011;68856;45.586;10.264;2023-05-02T14:26:32;4.68;;;1.33;;
79399;SDS011;68856;45.586;10.264;2023-05-02T14:28:58;1.75;;;1.58;;
79399;SDS011;68856;45.586;10.264;2023-05-02T14:31:25;1.58;;;1.40;;
79399;SDS011;68856;45.586;10.264;2023-05-02T14:33:51;1.67;;;1.27;;
79399;SDS011;68856;45.586;10.264;2023-05-02T14:36:18;1.60;;;1.50;;
79399;SDS011;68856;45.586;10.264;2023-05-02T14:38:44;1.42;;;1.10;;
79399;SDS011;68856;45.586;10.264;2023-05-02T14:41:10;1.67;;;1.20;;
79399;SDS011;68856;45.586;10.264;2023-05-02T14:43:37;2.60;;;1.00;;
79399;SDS011;68856;45.586;10.264;2023-05-02T14:46:03;2.05;;;1.23;;
79399;SDS011;68856;45.586;10.264;2023-05-02T14:48:30;0.95;;;0.95;;
79399;SDS011;68856;45.586;10.264;2023-05-02T14:50:56;1.45;;;1.15;;
79399;SDS011;68856;45.586;10.264;2023-05-02T14:53:24;1.48;;;1.20;;
79399;SDS011;68856;45.586;10.264;2023-05-02T14:55:51;1.55;;;1.45;;
79399;SDS011;68856;45.586;10.264;2023-05-02T14:58:17;2.03;;;1.75;;
79399;SDS011;68856;45.586;10.264;2023-05-02T15:00:44;2.10;;;1.80;;
79399;SDS011;68856;45.586;10.264;2023-05-02T15:03:11;3.40;;;2.25;;
79399;SDS011;68856;45.586;10.264;2023-05-02T15:05:37;2.47;;;2.28;;
79399;SDS011;68856;45.586;10.264;2023-05-02T15:08:04;2.58;;;2.38;;
79399;SDS011;68856;45.586;10.264;2023-05-02T15:10:34;2.95;;;2.42;;
79399;SDS011;68856;45.586;10.264;2023-05-02T15:13:04;2.35;;;2.15;;
79399;SDS011;68856;45.586;10.264;2023-05-02T15:15:31;2.22;;;2.03;;
79399;SDS011;68856;45.586;10.264;2023-05-02T15:17:58;2.88;;;2.58;;
79399;SDS011;68856;45.586;10.264;2023-05-02T15:20:24;2.90;;;2.63;;
79399;SDS011;68856;45.586;10.264;2023-05-02T15:22:50;3.92;;;2.60;;
79399;SDS011;68856;45.586;10.264;2023-05-02T15:25:16;2.70;;;2.50;;
79399;SDS011;68856;45.586;10.264;2023-05-02T15:27:43;3.13;;;2.80;;
79399;SDS011;68856;45.586;10.264;2023-05-02T15:30:09;2.35;;;2.15;;
79399;SDS011;68856;45.586;10.264;2023-05-02T15:32:36;2.75;;;2.40;;
79399;SDS011;68856;45.586;10.264;2023-05-02T15:35:04;3.20;;;2.60;;
79399;SDS011;68856;45.586;10.264;2023-05-02T15:37:32;2.83;;;2.10;;
79399;SDS011;68856;45.586;10.264;2023-05-02T15:39:59;2.78;;;2.58;;
79399;SDS011;68856;45.586;10.264;2023-05-02T15:42:27;3.22;;;2.92;;
79399;SDS011;68856;45.586;10.264;2023-05-02T15:44:53;3.20;;;2.78;;
79399;SDS011;68856;45.586;10.264;2023-05-02T15:47:20;4.93;;;2.80;;
79399;SDS011;68856;45.586;10.264;2023-05-02T15:49:46;2.53;;;2.33;;
79399;SDS011;68856;45.586;10.264;2023-05-02T15:52:15;2.67;;;2.45;;